Time;durP1;ratioP1;P1;durP2;ratioP2;P2;SDS_P1;SDS_P2;PMS_P1;PMS_P2;Temp;Humidity;BMP_temperature;BMP_pressure;BME280_temperature;BME280_humidity;BME280_pressure;Samples;Min_cycle;Max_cycle;Signal;HPM_P1;HPM_P2
2022/12/27 00:00:46;;;;;;;;;66.67;53.00;;;;;5.81;100.00;99954.84;6309355;20;2865913;-58
2022/12/27 00:03:16;;;;;;;;;72.00;55.33;;;;;5.99;100.00;99947.13;6310294;20;3639874;-58
2022/12/27 00:05:47;;;;;;;;;63.67;49.67;;;;;6.01;100.00;99971.94;6309890;20;3621125;-57
2022/12/27 00:08:17;;;;;;;;;74.33;56.00;;;;;6.10;100.00;99960.91;6311069;20;3644161;-58
2022/12/27 00:10:46;;;;;;;;;68.00;52.67;;;;;6.21;100.00;99956.00;6309893;20;3634619;-58
2022/12/27 00:13:16;;;;;;;;;68.67;52.67;;;;;6.11;100.00;99968.00;6313530;20;3646073;-57
2022/12/27 00:15:45;;;;;;;;;64.00;52.50;;;;;6.00;100.00;99975.50;6316579;20;3499236;-57
2022/12/27 00:18:15;;;;;;;;;75.00;57.33;;;;;6.03;100.00;99964.72;6310658;20;2878479;-56
2022/12/27 00:20:44;;;;;;;;;74.00;58.00;;;;;5.98;100.00;99972.03;6312904;20;3612782;-58
2022/12/27 00:23:13;;;;;;;;;75.67;57.00;;;;;6.00;100.00;99981.69;6316153;20;3645128;-57
2022/12/27 00:25:43;;;;;;;;;68.00;53.00;;;;;6.13;100.00;99996.31;6315402;20;3629499;-57
2022/12/27 00:28:12;;;;;;;;;67.00;53.00;;;;;6.00;100.00;100002.16;6315174;20;2879373;-56
2022/12/27 00:30:42;;;;;;;;;73.33;55.67;;;;;5.99;100.00;100000.44;6313142;20;3637743;-58
2022/12/27 00:33:12;;;;;;;;;70.33;55.00;;;;;6.18;100.00;99997.94;6312411;20;3635680;-58
2022/12/27 00:35:41;;;;;;;;;65.00;50.33;;;;;6.13;100.00;99990.09;6316994;20;3632562;-57
2022/12/27 00:38:11;;;;;;;;;66.67;51.33;;;;;6.24;100.00;99995.00;6315629;20;2877507;-58
2022/12/27 00:40:41;;;;;;;;;67.33;53.00;;;;;6.11;100.00;99983.97;6312772;20;3615900;-56
2022/12/27 00:43:11;;;;;;;;;70.00;54.00;;;;;6.11;100.00;99978.66;6314551;20;2871181;-58
2022/12/27 00:45:43;;;;;;;;;70.33;53.67;;;;;6.13;100.00;99972.34;6313315;20;3631533;-57
2022/12/27 00:48:13;;;;;;;;;71.00;55.67;;;;;6.23;100.00;99977.28;6312333;20;3624471;-58
2022/12/27 00:50:44;;;;;;;;;70.67;53.00;;;;;6.28;100.00;99973.50;6313052;20;3631492;-58
2022/12/27 00:53:14;;;;;;;;;74.00;56.00;;;;;6.17;100.00;99977.53;6315600;20;2835812;-58
2022/12/27 00:55:44;;;;;;;;;73.33;55.33;;;;;5.98;100.00;99978.25;6313630;20;3631520;-57
2022/12/27 00:58:14;;;;;;;;;69.33;55.67;;;;;6.00;100.00;99978.16;6312896;20;3623221;-58
2022/12/27 01:00:43;;;;;;;;;74.67;58.00;;;;;5.96;100.00;99976.56;6311996;20;3633608;-59
2022/12/27 01:03:13;;;;;;;;;74.00;58.00;;;;;6.22;100.00;99964.91;6315566;20;3635712;-59
2022/12/27 01:05:43;;;;;;;;;69.00;54.67;;;;;5.99;100.00;99971.13;6312977;20;3611835;-57
2022/12/27 01:08:12;;;;;;;;;76.67;56.00;;;;;5.89;100.00;99963.41;6312420;20;3646110;-59
2022/12/27 01:10:42;;;;;;;;;73.33;56.00;;;;;6.04;100.00;99953.16;6310899;20;3641911;-58
2022/12/27 01:13:12;;;;;;;;;76.33;58.67;;;;;5.98;100.00;99950.69;6315096;20;3642957;-58
2022/12/27 01:15:42;;;;;;;;;80.67;63.33;;;;;5.98;100.00;99958.69;6280571;20;2869184;-57
2022/12/27 01:18:11;;;;;;;;;68.00;53.00;;;;;5.98;100.00;99945.38;6314704;20;3641921;-58
2022/12/27 01:20:41;;;;;;;;;68.33;54.33;;;;;6.07;100.00;99937.03;6312122;20;3616930;-58
2022/12/27 01:23:10;;;;;;;;;72.67;54.67;;;;;5.99;100.00;99934.66;6313441;20;3633608;-58
2022/12/27 01:25:40;;;;;;;;;72.33;55.67;;;;;5.96;100.00;99933.94;6309176;20;3625322;-58
2022/12/27 01:28:09;;;;;;;;;68.00;53.33;;;;;6.02;100.00;99931.88;6311363;20;3635783;-58
2022/12/27 01:30:39;;;;;;;;;70.33;53.33;;;;;5.85;100.00;99919.19;6310956;20;3645044;-58
2022/12/27 01:33:08;;;;;;;;;68.67;53.00;;;;;6.11;100.00;99930.66;6308666;20;3632596;-57
2022/12/27 01:35:38;;;;;;;;;69.00;55.67;;;;;6.05;100.00;99925.56;6314030;20;3620032;-57
2022/12/27 01:38:07;;;;;;;;;68.00;53.00;;;;;5.99;100.00;99917.81;6312112;20;3503386;-57
2022/12/27 01:40:38;;;;;;;;;69.33;53.00;;;;;6.01;100.00;99913.28;6310033;20;3652350;-58
2022/12/27 01:43:17;;;;;;;;;68.33;53.67;;;;;6.07;100.00;99902.38;6312071;20;3633995;-57
2022/12/27 01:45:47;;;;;;;;;65.67;53.00;;;;;5.91;100.00;99902.94;6314011;20;3604558;-58
2022/12/27 01:48:23;;;;;;;;;68.33;53.67;;;;;5.98;100.00;99914.28;6308882;20;2863975;-58
2022/12/27 01:51:01;;;;;;;;;70.00;55.67;;;;;5.97;100.00;99919.66;6307892;20;3619148;-58
2022/12/27 01:53:37;;;;;;;;;71.00;51.33;;;;;5.96;100.00;99921.47;6310201;20;3644109;-58
2022/12/27 01:56:23;;;;;;;;;68.00;53.00;;;;;5.94;100.00;99921.50;6310276;20;3639974;-58
2022/12/27 01:58:59;;;;;;;;;82.67;64.00;;;;;5.99;100.00;99923.13;6312295;20;3627727;-58
2022/12/27 02:01:43;;;;;;;;;88.75;69.00;;;;;6.12;100.00;99927.06;6313927;20;3648283;-58
2022/12/27 02:04:21;;;;;;;;;79.33;61.00;;;;;6.22;100.00;99928.44;6309630;20;3635679;-58
2022/12/27 02:06:52;;;;;;;;;74.00;57.33;;;;;6.17;100.00;99935.75;6312121;20;3609757;-59
2022/12/27 02:09:45;;;;;;;;;70.67;53.00;;;;;6.19;100.00;99928.56;6310129;20;3641916;-58
2022/12/27 02:12:15;;;;;;;;;80.00;61.67;;;;;6.18;100.00;99929.47;6311334;20;3637747;-59
2022/12/27 02:14:48;;;;;;;;;85.33;63.00;;;;;6.33;100.00;99922.66;6312486;20;3654441;-58
2022/12/27 02:17:28;;;;;;;;;81.00;60.67;;;;;6.27;100.00;99944.25;6280968;20;3632568;-58
2022/12/27 02:20:17;;;;;;;;;78.33;58.67;;;;;6.30;100.00;99942.31;6309638;20;3627334;-58
2022/12/27 02:27:05;;;;;;;;;75.00;58.00;;;;;6.40;100.00;99944.59;6312714;20;3637781;-58
2022/12/27 02:29:51;;;;;;;;;76.33;57.00;;;;;6.44;100.00;99954.25;6307926;20;3646137;-58
2022/12/27 02:33:12;;;;;;;;;75.33;57.00;;;;;6.47;100.00;99943.44;6306976;20;3645073;-57
2022/12/27 02:35:53;;;;;;;;;68.00;52.00;;;;;6.67;100.00;99954.16;6306527;20;3627354;-58
2022/12/27 02:38:33;;;;;;;;;70.33;52.33;;;;;6.83;100.00;99951.72;6309236;20;3655537;-58
2022/12/27 02:53:02;;;;;;;;;69.33;54.67;;;;;7.03;100.00;99956.25;6310470;20;3627336;-59
2022/12/27 03:03:39;;;;;;;;;74.67;55.67;;;;;6.91;100.00;99946.06;6312103;20;3644042;-58
2022/12/27 03:07:07;;;;;;;;;71.33;56.67;;;;;6.90;100.00;99936.31;6305598;20;3624288;-58
2022/12/27 03:16:56;;;;;;;;;74.00;60.67;;;;;6.60;100.00;99940.19;6309759;20;2864061;-58
2022/12/27 03:25:28;;;;;;;;;72.00;57.33;;;;;6.63;100.00;99963.22;6308450;20;3621137;-59
2022/12/27 03:34:31;;;;;;;;;76.67;59.67;;;;;6.70;100.00;99977.19;6309025;20;3630522;-59
2022/12/27 03:40:27;;;;;;;;;75.33;58.00;;;;;7.01;100.00;99980.31;6306982;20;3635730;-58
2022/12/27 03:43:13;;;;;;;;;75.00;57.33;;;;;6.94;100.00;99977.97;6311131;20;3631577;-58
2022/12/27 03:49:10;;;;;;;;;75.00;58.67;;;;;6.74;100.00;99987.69;6314362;20;3629486;-58
2022/12/27 03:51:55;;;;;;;;;97.00;81.00;;;;;6.64;100.00;99985.44;6311055;20;3687819;-59
2022/12/27 03:54:40;;;;;;;;;92.00;73.33;;;;;6.55;100.00;99994.69;6283994;20;3681950;-58
2022/12/27 03:57:24;;;;;;;;;86.33;66.00;;;;;6.64;100.00;99991.66;6276837;20;3662782;-58
2022/12/27 03:59:54;;;;;;;;;85.50;63.50;;;;;6.55;100.00;99992.00;6282913;20;3645078;-58
2022/12/27 04:02:24;;;;;;;;;88.33;74.00;;;;;6.36;100.00;99981.22;6315097;20;3674224;-59
2022/12/27 04:04:54;;;;;;;;;84.33;62.33;;;;;6.51;100.00;99998.41;6286512;20;3627353;-59
2022/12/27 04:07:23;;;;;;;;;87.00;69.67;;;;;6.55;100.00;99992.88;6312325;20;3662523;-58
2022/12/27 04:35:07;;;;;;;;;81.33;61.67;;;;;6.02;100.00;100024.28;6279765;20;3632590;-59
2022/12/27 04:37:36;;;;;;;;;72.00;55.67;;;;;5.95;100.00;100023.66;6314344;20;3633604;-59
2022/12/27 04:57:08;;;;;;;;;75.67;60.00;;;;;6.14;100.00;100053.16;6311975;20;3627333;-59
2022/12/27 05:02:26;;;;;;;;;72.00;57.00;;;;;6.20;100.00;100060.06;6311145;20;3624265;-58
2022/12/27 05:04:57;;;;;;;;;70.67;55.33;;;;;6.22;100.00;100061.75;6311279;20;3629469;-58
2022/12/27 05:15:51;;;;;;;;;69.00;54.67;;;;;6.24;100.00;100075.00;6306865;20;3620052;-59
2022/12/27 05:18:21;;;;;;;;;71.67;55.00;;;;;6.29;100.00;100073.94;6313157;20;2888033;-60
2022/12/27 05:20:50;;;;;;;;;64.00;52.50;;;;;6.42;100.00;100084.09;6310302;20;3491958;-58
2022/12/27 05:26:07;;;;;;;;;59.33;47.33;;;;;6.52;100.00;100097.03;6313798;20;3608649;-58
2022/12/27 05:28:37;;;;;;;;;61.00;47.67;;;;;6.55;100.00;100096.03;6313835;20;3621277;-59
2022/12/27 05:31:06;;;;;;;;;54.00;42.00;;;;;6.54;100.00;100094.31;6312534;20;2861810;-58
2022/12/27 05:33:35;;;;;;;;;63.67;48.00;;;;;6.54;100.00;100099.66;6280614;20;2894165;-59
2022/12/27 05:36:06;;;;;;;;;59.33;47.33;;;;;6.51;100.00;100103.31;6311111;20;2869214;-58
2022/12/27 05:38:36;;;;;;;;;59.67;46.33;;;;;6.41;100.00;100098.38;6307987;20;2863940;-58
2022/12/27 05:41:06;;;;;;;;;65.00;50.00;;;;;6.33;100.00;100102.19;6310243;20;3636755;-58
2022/12/27 05:43:36;;;;;;;;;57.33;47.33;;;;;6.30;100.00;100104.97;6313746;20;2871256;-57
2022/12/27 05:46:11;;;;;;;;;54.33;41.00;;;;;6.41;100.00;100095.72;6311548;20;3622178;-58
2022/12/27 05:48:42;;;;;;;;;56.67;43.00;;;;;6.48;100.00;100089.22;6305231;20;2864098;-58
2022/12/27 05:51:17;;;;;;;;;69.00;55.00;;;;;6.37;100.00;100092.28;6308562;20;2862816;-56
2022/12/27 05:53:48;;;;;;;;;58.33;43.67;;;;;6.32;100.00;100103.13;6309139;20;2866001;-57
2022/12/27 05:56:21;;;;;;;;;59.00;45.33;;;;;6.44;100.00;100098.25;6309916;20;2870727;-58
2022/12/27 05:58:53;;;;;;;;;48.50;42.00;;;;;6.48;100.00;100105.22;6308916;20;2852508;-61
2022/12/27 06:01:22;;;;;;;;;55.00;43.00;;;;;6.49;100.00;100109.63;6278388;20;2850287;-60
2022/12/27 06:03:51;;;;;;;;;60.33;47.00;;;;;6.47;100.00;100127.47;6284495;20;3614860;-61
2022/12/27 06:06:21;;;;;;;;;63.33;48.33;;;;;6.42;100.00;100126.78;6312259;20;3628419;-60
2022/12/27 06:08:50;;;;;;;;;62.33;49.33;;;;;6.38;100.00;100132.22;6310424;20;2864014;-61
2022/12/27 06:11:20;;;;;;;;;64.67;50.00;;;;;6.23;100.00;100129.25;6311466;20;3613782;-60
2022/12/27 06:13:53;;;;;;;;;62.00;48.67;;;;;6.18;100.00;100134.75;6312642;20;2869141;-60
2022/12/27 06:16:23;;;;;;;;;67.33;51.67;;;;;6.04;100.00;100155.72;6308722;20;3635684;-60
2022/12/27 06:18:53;;;;;;;;;64.33;51.67;;;;;6.02;100.00;100154.91;6313839;20;3627376;-60
2022/12/27 06:21:22;;;;;;;;;58.33;48.67;;;;;6.07;100.00;100158.28;6310622;20;2875329;-60
2022/12/27 06:23:52;;;;;;;;;60.33;45.33;;;;;5.96;100.00;100161.31;6311981;20;3624352;-60
2022/12/27 06:26:24;;;;;;;;;46.67;39.33;;;;;5.97;100.00;100159.53;6314051;20;3623329;-61
2022/12/27 06:28:56;;;;;;;;;57.67;47.67;;;;;5.97;100.00;100163.03;6278760;20;2871228;-60
2022/12/27 06:31:27;;;;;;;;;50.33;39.00;;;;;6.05;100.00;100166.31;6309296;20;2878985;-60
2022/12/27 06:33:57;;;;;;;;;46.67;38.00;;;;;6.29;100.00;100169.94;6313476;20;3615899;-60
2022/12/27 06:36:28;;;;;;;;;49.00;41.00;;;;;6.25;100.00;100165.63;6316557;20;3618027;-60
2022/12/27 06:38:59;;;;;;;;;48.00;40.00;;;;;6.23;100.00;100169.25;6281948;20;2859682;-60
2022/12/27 06:41:28;;;;;;;;;50.50;40.50;;;;;6.27;100.00;100169.09;6277581;20;2854538;-60
2022/12/27 06:43:58;;;;;;;;;56.00;46.00;;;;;6.28;100.00;100157.50;6278222;20;2851385;-60
2022/12/27 06:46:26;;;;;;;;;27.00;24.00;;;;;6.27;100.00;100174.44;6280830;20;2502393;-60
2022/12/27 06:48:55;;;;;;;;;57.00;46.00;;;;;6.17;100.00;100180.16;6279249;20;2859694;-59
2022/12/27 06:51:24;;;;;;;;;63.00;49.67;;;;;6.21;100.00;100187.97;6275746;20;2873180;-60
2022/12/27 06:53:53;;;;;;;;;52.00;42.00;;;;;6.24;100.00;100187.88;6312479;20;2858737;-60
2022/12/27 06:56:23;;;;;;;;;38.00;30.33;;;;;6.22;100.00;100200.38;6280749;20;3646252;-60
2022/12/27 06:58:52;;;;;;;;;46.33;38.33;;;;;6.42;100.00;100196.13;6317292;20;3602361;-60
2022/12/27 07:01:26;;;;;;;;;44.00;38.00;;;;;6.47;100.00;100196.84;6278959;20;2861877;-59
2022/12/27 07:03:58;;;;;;;;;53.50;42.00;;;;;6.47;100.00;100210.16;6282163;20;2846096;-60
2022/12/27 07:06:31;;;;;;;;;45.00;39.00;;;;;6.50;100.00;100216.28;6280378;20;2855541;-60
2022/12/27 07:09:00;;;;;;;;;53.00;45.00;;;;;6.57;100.00;100211.56;6278153;20;2862844;-60
2022/12/27 07:11:34;;;;;;;;;50.67;42.33;;;;;6.70;100.00;100212.88;6308693;20;2873347;-60
2022/12/27 07:14:08;;;;;;;;;53.33;40.67;;;;;6.78;100.00;100218.78;6311388;20;2865058;-60
2022/12/27 07:16:37;;;;;;;;;25.00;24.33;;;;;6.67;100.00;100221.00;6312700;20;3571128;-61
2022/12/27 07:19:08;;;;;;;;;34.33;29.00;;;;;6.78;100.00;100224.13;6311878;20;2853542;-61
2022/12/27 07:21:37;;;;;;;;;34.67;32.00;;;;;6.98;100.00;100230.53;6309748;20;3613862;-62
2022/12/27 07:24:06;;;;;;;;;38.33;32.67;;;;;7.21;100.00;100227.84;6283747;20;3612973;-61
2022/12/27 07:26:35;;;;;;;;;28.67;26.67;;;;;7.58;100.00;100239.72;6313531;20;3570219;-61
2022/12/27 07:29:04;;;;;;;;;35.33;29.00;;;;;7.60;100.00;100235.19;6318229;20;3599249;-61
2022/12/27 07:31:33;;;;;;;;;30.00;24.00;;;;;7.77;100.00;100239.84;6283973;20;2843996;-61
2022/12/27 07:34:03;;;;;;;;;28.00;26.00;;;;;7.78;100.00;100243.38;6281141;20;2844063;-61
2022/12/27 07:36:38;;;;;;;;;27.00;24.00;;;;;7.60;100.00;100247.66;6285541;20;2839856;-62
2022/12/27 07:39:08;;;;;;;;;28.50;25.50;;;;;7.61;100.00;100250.28;6284052;20;2838854;-62
2022/12/27 07:41:37;;;;;;;;;27.50;24.00;;;;;7.51;100.00;100259.59;6283204;20;2853634;-62
2022/12/27 07:44:06;;;;;;;;;27.00;24.00;;;;;7.74;100.00;100265.81;6285932;20;2839974;-60
2022/12/27 07:46:35;;;;;;;;;25.50;25.50;;;;;7.81;100.00;100268.19;6283866;20;2848331;-60
2022/12/27 07:49:06;;;;;;;;;32.67;28.00;;;;;8.10;100.00;100264.28;6281809;20;2852559;-61
2022/12/27 07:51:41;;;;;;;;;30.33;28.00;;;;;8.45;100.00;100275.34;6317415;20;3608588;-61
2022/12/27 07:54:11;;;;;;;;;28.33;22.00;;;;;8.78;100.00;100266.75;6283374;20;2864937;-61
2022/12/27 07:56:39;;;;;;;;;30.67;27.00;;;;;8.49;100.00;100266.22;6318792;20;3596185;-62
2022/12/27 07:59:12;;;;;;;;;25.50;24.00;;;;;8.26;100.00;100271.66;6284383;20;2837776;-62
2022/12/27 08:04:28;;;;;;;;;21.00;19.00;;;;;8.46;100.00;100269.06;6284349;20;2722242;-61
2022/12/27 08:07:13;;;;;;;;;23.67;22.00;;;;;8.57;100.00;100266.75;6319000;20;3584686;-61
2022/12/27 08:09:44;;;;;;;;;21.00;18.00;;;;;8.81;100.00;100285.34;6311886;20;2494180;-61
2022/12/27 08:12:13;;;;;;;;;18.00;12.00;;;;;8.97;100.00;100282.84;6283629;20;3546147;-62
2022/12/27 08:14:43;;;;;;;;;14.40;10.80;;;;;9.19;99.80;100282.75;6339002;20;2794050;-62
2022/12/27 08:17:23;;;;;;;;;15.67;10.00;;;;;9.47;99.27;100297.53;6284676;20;2800674;-62
2022/12/27 08:19:51;;;;;;;;;6.00;6.00;;;;;9.28;98.73;100305.56;6317507;20;2731557;-62
2022/12/27 08:22:21;;;;;;;;;4.00;4.00;;;;;9.38;97.55;100306.88;6285447;20;2749289;-61
2022/12/27 08:24:49;;;;;;;;;7.00;5.00;;;;;9.34;96.69;100316.84;6287939;20;2748267;-62
2022/12/27 08:27:24;;;;;;;;;7.50;5.00;;;;;9.31;96.25;100319.69;6299835;20;1806574;-62
2022/12/27 08:29:52;;;;;;;;;0.50;0.50;;;;;9.38;95.07;100328.31;6331772;20;1803288;-62
2022/12/27 08:32:20;;;;;;;;;3.00;3.00;;;;;9.59;94.52;100334.50;6313491;20;2732644;-62
2022/12/27 08:34:48;;;;;;;;;3.50;3.50;;;;;9.43;93.06;100337.88;6286361;20;2752393;-62
2022/12/27 08:37:15;;;;;;;;;3.50;2.00;;;;;9.59;91.78;100340.72;6285302;20;2746683;-62
2022/12/27 08:39:47;;;;;;;;;5.00;4.00;;;;;9.57;91.88;100347.97;6324931;20;2485714;-64
2022/12/27 08:42:14;;;;;;;;;3.50;3.50;;;;;9.59;91.44;100339.84;6318992;20;2752362;-62
2022/12/27 08:44:42;;;;;;;;;2.00;2.00;;;;;9.60;90.99;100355.00;6284034;20;2746120;-63
2022/12/27 08:47:10;;;;;;;;;13.00;11.00;;;;;9.57;91.17;100352.47;6282035;20;2792974;-62
2022/12/27 08:49:40;;;;;;;;;6.40;6.40;;;;;9.75;89.84;100334.63;6311980;20;2739868;-61
2022/12/27 08:52:07;;;;;;;;;6.50;6.00;;;;;9.89;89.43;100338.38;6317764;20;2743062;-60
2022/12/27 08:54:35;;;;;;;;;6.50;6.50;;;;;9.97;89.81;100355.91;6283564;20;2741028;-62
2022/12/27 08:57:04;;;;;;;;;4.75;4.75;;;;;9.79;90.38;100363.91;6299993;20;1819182;-61
2022/12/27 08:59:32;;;;;;;;;3.00;3.00;;;;;9.32;88.79;100355.38;6329729;20;1790918;-61
2022/12/27 09:02:01;;;;;;;;;0.50;0.50;;;;;9.30;88.81;100350.13;6332115;20;1805780;-60
2022/12/27 09:04:30;;;;;;;;;1.00;1.00;;;;;9.29;88.11;100359.06;6336400;20;1803541;-61
2022/12/27 09:06:57;;;;;;;;;3.50;3.00;;;;;9.20;87.45;100365.72;6315178;20;2746160;-60
2022/12/27 09:09:26;;;;;;;;;3.00;1.25;;;;;9.25;87.93;100378.94;6298593;20;1809818;-61
2022/12/27 09:11:54;;;;;;;;;3.00;1.00;;;;;8.99;88.06;100386.31;6332815;20;1809872;-60
2022/12/27 09:14:24;;;;;;;;;4.00;2.00;;;;;9.09;87.82;100383.25;6316678;20;2754565;-61
2022/12/27 09:16:52;;;;;;;;;1.00;1.00;;;;;8.96;88.01;100393.63;6301580;20;1799372;-61
2022/12/27 09:19:20;;;;;;;;;3.50;2.00;;;;;9.09;85.92;100385.91;6314596;20;2746110;-61
2022/12/27 09:21:48;;;;;;;;;1.00;1.00;;;;;9.34;85.36;100389.22;6303416;20;1809658;-61
2022/12/27 09:24:16;;;;;;;;;4.00;3.00;;;;;9.44;85.57;100390.53;6313891;20;2756556;-61
2022/12/27 09:26:44;;;;;;;;;2.50;2.00;;;;;9.44;84.99;100379.81;6300476;20;1799931;-60
2022/12/27 09:29:13;;;;;;;;;1.00;1.00;;;;;9.23;83.82;100380.81;6334534;20;1800821;-61
2022/12/27 09:31:40;;;;;;;;;3.00;2.00;;;;;9.14;84.01;100395.47;6313857;20;2752894;-60
2022/12/27 09:34:10;;;;;;;;;0.00;0.00;;;;;9.23;83.30;100397.75;6298553;20;2727401;-61
2022/12/27 09:36:39;;;;;;;;;12.00;10.00;;;;;9.01;83.51;100403.19;6283500;20;2777430;-61
2022/12/27 09:39:09;;;;;;;;;4.00;3.00;;;;;9.07;85.58;100387.78;6280056;20;2750359;-62
2022/12/27 09:42:10;;;;;;;;;2.00;2.00;;;;;9.02;83.96;100399.56;6302235;20;1804638;-61
2022/12/27 09:45:30;;;;;;;;;0.00;0.00;;;;;8.94;84.15;100411.56;6318721;20;3423299;-61
2022/12/27 09:48:09;;;;;;;;;5.50;4.00;;;;;8.86;83.81;100408.34;6283852;20;2745136;-60
2022/12/27 09:50:54;;;;;;;;;1.00;1.00;;;;;8.96;83.94;100407.00;6297667;20;1806757;-60
2022/12/27 09:53:46;;;;;;;;;1.25;1.25;;;;;9.05;83.87;100411.09;6330711;20;1811896;-60
2022/12/27 09:56:28;;;;;;;;;2.25;2.25;;;;;9.04;83.74;100417.38;6333278;20;1811893;-60
2022/12/27 09:59:40;;;;;;;;;2.00;1.75;;;;;8.81;83.49;100413.88;6328991;20;1811849;-60
2022/12/27 10:02:25;;;;;;;;;3.00;3.00;;;;;8.81;84.58;100421.03;6315024;20;2753466;-61
2022/12/27 10:04:56;;;;;;;;;11.50;5.00;;;;;8.71;83.13;100425.91;6279923;20;2776319;-60
2022/12/27 10:08:24;;;;;;;;;7.25;4.00;;;;;8.69;83.11;100438.47;6302928;20;1814991;-61
2022/12/27 10:11:34;;;;;;;;;4.00;2.00;;;;;8.63;82.78;100441.41;6312969;20;2746515;-59
2022/12/27 10:14:49;;;;;;;;;5.25;4.00;;;;;8.59;81.69;100443.38;6299156;20;1815498;-61
2022/12/27 10:18:00;;;;;;;;;2.00;2.00;;;;;8.78;81.07;100456.84;6313806;20;2753405;-61
2022/12/27 10:21:15;;;;;;;;;2.00;2.00;;;;;8.84;78.95;100447.69;6296907;20;1805436;-59
2022/12/27 10:23:59;;;;;;;;;4.00;3.00;;;;;8.93;79.98;100441.97;6315267;20;2756556;-61
2022/12/27 10:26:27;;;;;;;;;5.00;3.00;;;;;8.89;79.35;100464.44;6286687;20;2656561;-60
2022/12/27 10:29:21;;;;;;;;;3.00;3.00;;;;;9.00;77.38;100463.06;6282352;20;2752380;-59
2022/12/27 10:31:49;;;;;;;;;2.00;2.00;;;;;9.13;74.30;100465.19;6280612;20;2748250;-59
2022/12/27 10:34:25;;;;;;;;;1.00;1.00;;;;;8.93;72.16;100469.59;6297597;20;1804540;-60
2022/12/27 10:36:56;;;;;;;;;1.50;1.50;;;;;9.15;71.02;100480.25;6313602;20;2741990;-59
2022/12/27 10:39:31;;;;;;;;;3.00;1.00;;;;;8.94;68.19;100479.38;6298468;20;1811882;-60
2022/12/27 10:42:40;;;;;;;;;1.00;1.00;;;;;9.01;66.73;100493.38;6329692;20;1802887;-59
2022/12/27 10:45:35;;;;;;;;;1.00;1.00;;;;;8.88;65.62;100487.66;6329470;20;1805579;-60
2022/12/27 10:48:25;;;;;;;;;3.00;2.50;;;;;8.84;64.40;100486.03;6315663;20;2753397;-60
2022/12/27 10:51:14;;;;;;;;;0.25;0.00;;;;;8.85;61.77;100482.44;6298267;20;1803502;-59
2022/12/27 10:53:44;;;;;;;;;2.00;2.00;;;;;8.77;61.71;100471.19;6314342;20;2732682;-60
2022/12/27 10:56:31;;;;;;;;;5.50;4.50;;;;;8.97;63.27;100470.34;6308497;20;2753503;-61
2022/12/27 10:59:19;;;;;;;;;5.00;5.00;;;;;9.08;61.61;100483.28;6283565;20;2754476;-60
2022/12/27 11:02:01;;;;;;;;;2.25;2.25;;;;;8.83;60.01;100468.25;6300897;20;1804435;-59
2022/12/27 11:04:31;;;;;;;;;8.50;4.00;;;;;9.13;62.59;100470.56;6315206;20;2743136;-60
2022/12/27 11:06:58;;;;;;;;;4.50;2.50;;;;;8.90;61.98;100467.06;6281080;20;2748226;-60
2022/12/27 11:09:42;;;;;;;;;1.00;1.00;;;;;8.85;61.41;100469.06;6300567;20;1809677;-61
2022/12/27 11:12:31;;;;;;;;;4.00;4.00;;;;;8.73;61.06;100467.75;6313587;20;2744035;-60
2022/12/27 11:15:10;;;;;;;;;2.00;2.00;;;;;8.74;62.37;100461.47;6282951;20;2748232;-60
2022/12/27 11:17:51;;;;;;;;;1.75;1.00;;;;;8.85;62.12;100471.75;6296677;20;1809756;-59
2022/12/27 11:20:50;;;;;;;;;1.50;1.25;;;;;8.79;62.59;100480.91;6329036;20;1807665;-60
2022/12/27 11:23:21;;;;;;;;;2.00;2.00;;;;;8.97;61.63;100492.63;6312206;20;2727496;-60
2022/12/27 11:26:03;;;;;;;;;2.50;2.50;;;;;8.89;61.83;100465.31;6313515;20;2752442;-60
2022/12/27 11:28:51;;;;;;;;;2.00;2.00;;;;;9.01;61.56;100485.34;6281875;20;2752785;-59
2022/12/27 11:31:35;;;;;;;;;9.50;6.50;;;;;9.00;62.16;100475.56;6284436;20;2746158;-60
2022/12/27 11:34:29;;;;;;;;;4.50;2.00;;;;;9.06;60.31;100480.69;6282562;20;2748202;-60
2022/12/27 11:37:19;;;;;;;;;2.00;2.00;;;;;9.13;59.56;100459.84;6297174;20;1806670;-60
2022/12/27 11:39:54;;;;;;;;;4.00;4.00;;;;;9.08;60.25;100480.59;6312556;20;2753402;-59
2022/12/27 11:42:44;;;;;;;;;3.00;2.00;;;;;8.96;60.23;100463.25;6276813;20;2755445;-60
2022/12/27 11:45:47;;;;;;;;;6.00;6.00;;;;;8.94;59.75;100484.72;6283645;20;2731562;-60
2022/12/27 11:48:40;;;;;;;;;3.00;3.00;;;;;8.90;61.00;100487.59;6312892;20;2755505;-61
2022/12/27 11:51:47;;;;;;;;;3.00;3.00;;;;;8.88;60.06;100487.66;6279096;20;2739902;-60
2022/12/27 11:55:20;;;;;;;;;1.00;1.00;;;;;8.81;60.15;100491.53;6281123;20;2729476;-60
2022/12/27 11:58:44;;;;;;;;;3.50;3.50;;;;;8.95;60.03;100498.97;6280371;20;2749230;-59
2022/12/27 12:01:59;;;;;;;;;3.00;2.00;;;;;8.86;60.05;100505.59;6280696;20;2748319;-60
2022/12/27 12:04:54;;;;;;;;;4.00;4.00;;;;;8.97;59.39;100497.97;6282859;20;2752390;-60
2022/12/27 12:08:14;;;;;;;;;2.75;2.75;;;;;8.93;59.54;100507.09;6295196;20;1810880;-59
2022/12/27 12:11:40;;;;;;;;;4.00;4.00;;;;;8.71;60.15;100511.56;6313381;20;2746167;-60
2022/12/27 12:14:44;;;;;;;;;3.00;3.00;;;;;8.81;59.96;100506.72;6282629;20;2735782;-60
2022/12/27 12:17:50;;;;;;;;;3.00;3.00;;;;;8.49;60.76;100501.75;6315462;20;2756535;-62
2022/12/27 12:21:17;;;;;;;;;1.50;1.50;;;;;8.55;61.16;100506.84;6302538;20;1809757;-59
2022/12/27 12:24:32;;;;;;;;;3.00;3.00;;;;;8.51;60.55;100520.44;6332441;20;1802460;-60
2022/12/27 12:27:52;;;;;;;;;5.00;3.00;;;;;8.39;60.51;100505.72;6314825;20;2748280;-60
2022/12/27 12:31:15;;;;;;;;;3.00;2.00;;;;;8.48;61.54;100508.03;6299431;20;1809548;-59
2022/12/27 12:34:07;;;;;;;;;3.00;3.00;;;;;8.35;61.42;100521.00;6316754;20;2754444;-60
2022/12/27 12:37:14;;;;;;;;;9.00;7.00;;;;;8.12;60.44;100508.50;6284851;20;2736137;-60
2022/12/27 12:40:12;;;;;;;;;7.50;4.50;;;;;8.19;61.53;100502.91;6280071;20;2750379;-60
2022/12/27 12:43:11;;;;;;;;;7.00;7.00;;;;;8.27;61.39;100499.03;6282980;20;2748253;-60
2022/12/27 12:46:36;;;;;;;;;18.50;15.00;;;;;8.22;61.29;100509.03;6282787;20;2816961;-60
2022/12/27 12:49:13;;;;;;;;;4.00;4.00;;;;;8.22;61.20;100529.56;6283865;20;2750331;-60
2022/12/27 12:52:17;;;;;;;;;15.00;15.00;;;;;8.32;60.46;100552.31;6284003;20;2805579;-59
2022/12/27 12:55:20;;;;;;;;;4.00;4.00;;;;;8.30;60.71;100554.22;6302649;20;1816000;-60
2022/12/27 12:58:23;;;;;;;;;2.75;2.75;;;;;8.19;60.75;100554.63;6334226;20;1816009;-59
2022/12/27 13:01:18;;;;;;;;;4.00;4.00;;;;;8.18;61.28;100552.84;6313439;20;2736789;-59
2022/12/27 13:04:25;;;;;;;;;4.00;3.50;;;;;8.12;60.79;100562.00;6288153;20;2750279;-60
2022/12/27 13:07:15;;;;;;;;;4.00;4.00;;;;;8.15;61.13;100561.00;6283997;20;2756507;-59
2022/12/27 13:10:14;;;;;;;;;8.67;8.67;;;;;8.23;61.13;100568.75;6281490;20;2763929;-60
2022/12/27 13:13:16;;;;;;;;;5.00;5.00;;;;;8.39;60.80;100569.94;6314226;20;2756541;-60
2022/12/27 13:16:33;;;;;;;;;7.00;5.00;;;;;8.36;60.50;100564.66;6284500;20;2747193;-61
2022/12/27 13:20:02;;;;;;;;;2.00;2.00;;;;;8.23;59.05;100582.13;6283774;20;2755519;-60
2022/12/27 13:23:02;;;;;;;;;2.00;2.00;;;;;8.03;59.58;100577.50;6283301;20;2752427;-60
2022/12/27 13:26:11;;;;;;;;;2.00;2.00;;;;;8.17;59.97;100579.69;6280367;20;2741983;-60
2022/12/27 13:29:41;;;;;;;;;2.00;2.00;;;;;8.07;60.47;100579.16;6316676;20;2739862;-60
2022/12/27 13:32:36;;;;;;;;;3.00;3.00;;;;;8.03;60.50;100589.09;6314722;20;2747199;-59
2022/12/27 13:35:49;;;;;;;;;2.00;2.00;;;;;8.00;60.47;100577.63;6284011;20;2750307;-60
2022/12/27 13:38:53;;;;;;;;;2.00;2.00;;;;;7.81;60.29;100582.75;6282115;20;2752373;-60
2022/12/27 13:42:00;;;;;;;;;62.50;45.00;;;;;7.95;59.99;100580.44;6279082;20;2879480;-60
2022/12/27 13:45:00;;;;;;;;;13.80;9.60;;;;;7.86;59.41;100591.50;6306567;20;2762848;-60
2022/12/27 13:47:45;;;;;;;;;11.80;8.00;;;;;7.65;59.85;100607.34;6305205;20;2755975;-60
2022/12/27 13:50:55;;;;;;;;;9.50;7.00;;;;;7.78;60.41;100612.28;6279372;20;2751325;-60
2022/12/27 13:54:25;;;;;;;;;5.00;2.50;;;;;7.51;59.38;100623.00;6280493;20;2740010;-59